AQQ10 IFIS: Internet Flight Information System
logo dgac
Viernes 12 de Abril del 2024
Buscar por aerodromo o helipuerto
Ingrese nombre de aeródromo, localidad o designador OACI:
METAR del 12-04-2024 a las 12:00 UTC
Para mayor información visite www.meteochile.gob.cl
METAR SCSN 121200Z 15003KT 060V220 9999 FEW015 BKN110 11/11 Q1015
Viento: dirección 150 grados, velocidad 3 nudos
Viento con dirección variable entre 060 y 220 grados
Visibilidad: 10 km o más
Nubes: Escasa nubosidad a 1500 pies sobre el nivel del aeródromo
Nubes: Nublado a 11000 pies sobre el nivel del aeródromo
Temperatura: 11 °C
Rocío: 11 °C
Humedad_relativa: 100%
Presión: 1015 hPa
METAR del 12-04-2024 a las 12:00 UTC
Para mayor información visite www.meteochile.gob.cl
METAR SCSN 121200Z 15003KT 060V220 9999 FEW015 BKN110 11/11 Q1015
Viento: dirección 150 grados, velocidad 3 nudos
Viento con dirección variable entre 060 y 220 grados
Visibilidad: 10 km o más
Nubes: Escasa nubosidad a 1500 pies sobre el nivel del aeródromo
Nubes: Nublado a 11000 pies sobre el nivel del aeródromo
Temperatura: 11 °C
Rocío: 11 °C
Humedad_relativa: 100%
Presión: 1015 hPa
METAR del 12-04-2024 a las 11:00 UTC
Para mayor información visite www.meteochile.gob.cl
METAR SCSN 121100Z AUTO 14003KT 110V170 9999 NCD 11/11 Q1015
Viento: dirección 140 grados, velocidad 3 nudos
Viento con dirección variable entre 110 y 170 grados
Visibilidad: 10 km o más
Temperatura: 11 °C
Rocío: 11 °C
Humedad_relativa: 100%
Presión: 1015 hPa
METAR del 12-04-2024 a las 10:00 UTC
Para mayor información visite www.meteochile.gob.cl
METAR SCSN 121000Z AUTO VRB02KT 9999 NCD 10/10 Q1015
Viento: dirección variable, velocidad 2 nudos
Visibilidad: 10 km o más
Temperatura: 10 °C
Rocío: 10 °C
Humedad_relativa: 100%
Presión: 1015 hPa
METAR del 12-04-2024 a las 09:00 UTC
Para mayor información visite www.meteochile.gob.cl
METAR SCSN 120900Z AUTO 00000KT 9999 NCD 10/10 Q1016
Visibilidad: 10 km o más
Temperatura: 10 °C
Rocío: 10 °C
Humedad_relativa: 100%
Presión: 1016 hPa
METAR del 12-04-2024 a las 08:00 UTC
Para mayor información visite www.meteochile.gob.cl
METAR SCSN 120800Z AUTO 00000KT 9999 NCD 11/11 Q1015
Visibilidad: 10 km o más
Temperatura: 11 °C
Rocío: 11 °C
Humedad_relativa: 100%
Presión: 1015 hPa
METAR del 12-04-2024 a las 07:00 UTC
Para mayor información visite www.meteochile.gob.cl
METAR SCSN 120700Z AUTO 13003KT 9999 NCD 10/10 Q1016
Viento: dirección 130 grados, velocidad 3 nudos
Visibilidad: 10 km o más
Temperatura: 10 °C
Rocío: 10 °C
Humedad_relativa: 100%
Presión: 1016 hPa
SPECI del 12-04-2024 a las 06:31 UTC
Para mayor información visite www.meteochile.gob.cl
SPECI SCSN 120631Z AUTO VRB02KT 9999 NCD 10/10 Q1016
Viento: dirección variable, velocidad 2 nudos
Visibilidad: 10 km o más
Temperatura: 10 °C
Rocío: 10 °C
Humedad_relativa: 100%
Presión: 1016 hPa
METAR del 12-04-2024 a las 06:00 UTC
Para mayor información visite www.meteochile.gob.cl
METAR SCSN 120600Z AUTO VRB01KT 9999 NCD 08/08 Q1016
Viento: dirección variable, velocidad 1 nudos
Visibilidad: 10 km o más
Temperatura: 8 °C
Rocío: 8 °C
Humedad_relativa: 100%
Presión: 1016 hPa
METAR del 12-04-2024 a las 05:00 UTC
Para mayor información visite www.meteochile.gob.cl
METAR SCSN 120500Z AUTO 00000KT 9999 NCD 09/09 Q1016
Visibilidad: 10 km o más
Temperatura: 9 °C
Rocío: 9 °C
Humedad_relativa: 100%
Presión: 1016 hPa